Time;durP1;ratioP1;P1;durP2;ratioP2;P2;SDS_P1;SDS_P2;PMS_P1;PMS_P2;Temp;Humidity;BMP_temperature;BMP_pressure;BME280_temperature;BME280_humidity;BME280_pressure;Samples;Min_cycle;Max_cycle;Signal;HPM_P1;HPM_P2
2022/09/20 00:01:12;;;;;;;20.97;13.28;;;;;;;8.68;96.40;99779.30;1746953;81;27825;-72
2022/09/20 00:03:42;;;;;;;18.82;12.45;;;;;;;8.66;96.37;99773.98;1724316;81;25673;-72
2022/09/20 00:06:13;;;;;;;20.35;12.98;;;;;;;8.63;96.19;99781.34;1722032;83;25434;-72
2022/09/20 00:08:40;;;;;;;22.15;14.00;;;;;;;8.61;96.27;99785.69;1722098;83;25791;-72
2022/09/20 00:11:15;;;;;;;17.32;12.90;;;;;;;8.58;96.07;99786.30;1722115;83;25484;-72
2022/09/20 00:13:44;;;;;;;18.70;13.13;;;;;;;8.55;96.15;99788.28;1721344;83;27402;-71
2022/09/20 00:16:18;;;;;;;20.70;12.70;;;;;;;8.52;96.20;99786.98;1713104;83;26270;-72
2022/09/20 00:18:51;;;;;;;21.77;13.15;;;;;;;8.51;96.39;99788.11;1721949;83;25217;-70
2022/09/20 00:21:24;;;;;;;16.75;12.13;;;;;;;8.48;96.22;99791.41;1719932;83;26143;-70
2022/09/20 00:23:52;;;;;;;16.27;11.63;;;;;;;8.45;96.16;99786.63;1722076;83;25552;-71
2022/09/20 00:26:19;;;;;;;19.32;11.78;;;;;;;8.42;96.10;99791.25;1722043;83;27317;-72
2022/09/20 00:28:46;;;;;;;18.95;11.05;;;;;;;8.40;96.21;99795.59;1722031;83;25658;-71
2022/09/20 00:31:13;;;;;;;17.23;11.45;;;;;;;8.36;95.99;99793.80;1722170;83;25666;-71
2022/09/20 00:36:26;;;;;;;19.15;12.68;;;;;;;8.32;96.62;99792.28;1722264;83;25610;-71
2022/09/20 00:38:58;;;;;;;20.08;12.25;;;;;;;8.31;96.59;99790.70;1722131;83;28207;-71
2022/09/20 00:41:25;;;;;;;18.90;13.10;;;;;;;8.29;96.41;99792.09;1722058;83;25609;-72
2022/09/20 00:43:52;;;;;;;21.57;12.73;;;;;;;8.26;96.32;99793.52;1722097;83;25601;-71
2022/09/20 00:46:41;;;;;;;20.02;12.53;;;;;;;8.25;96.58;99795.95;1722043;83;26182;-71
2022/09/20 00:49:20;;;;;;;18.07;12.27;;;;;;;8.24;96.62;99801.11;1722360;83;25633;-71
2022/09/20 00:51:51;;;;;;;18.55;12.50;;;;;;;8.22;96.56;99794.68;1722247;83;27418;-71
2022/09/20 00:54:20;;;;;;;20.23;12.80;;;;;;;8.19;96.58;99794.50;1700937;83;25685;-71
2022/09/20 00:56:47;;;;;;;18.23;12.93;;;;;;;8.17;96.77;99795.33;1722335;83;25620;-71
2022/09/20 00:59:29;;;;;;;21.07;12.58;;;;;;;8.17;96.93;99797.49;1721951;83;25667;-70
2022/09/20 01:02:01;;;;;;;20.25;12.33;;;;;;;8.15;96.82;99794.28;1722144;83;25586;-71
2022/09/20 01:04:29;;;;;;;18.98;12.58;;;;;;;8.13;96.79;99799.74;1731900;81;27942;-71
2022/09/20 01:06:59;;;;;;;17.92;12.10;;;;;;;8.11;96.86;99801.39;1751987;81;25726;-71
2022/09/20 01:09:26;;;;;;;22.27;13.00;;;;;;;8.09;96.55;99793.36;1752032;81;25543;-72
2022/09/20 01:11:56;;;;;;;21.37;13.15;;;;;;;8.07;96.89;99795.03;1752099;81;25626;-72
2022/09/20 01:14:24;;;;;;;22.17;13.45;;;;;;;8.06;96.88;99794.77;1746884;81;25527;-72
2022/09/20 01:16:55;;;;;;;20.90;12.75;;;;;;;8.04;96.75;99792.38;1740370;81;28312;-72
2022/09/20 01:19:38;;;;;;;22.75;12.93;;;;;;;8.02;96.92;99797.84;1751990;81;25685;-72
2022/09/20 01:22:14;;;;;;;21.70;12.93;;;;;;;8.02;96.97;99794.59;1729491;81;25620;-71
2022/09/20 01:24:58;;;;;;;22.48;13.62;;;;;;;8.01;97.45;99797.58;1751141;81;26317;-70
2022/09/20 01:27:44;;;;;;;20.70;13.13;;;;;;;8.00;97.60;99800.83;1734818;81;25472;-71
2022/09/20 01:30:20;;;;;;;23.52;13.15;;;;;;;8.00;97.55;99800.02;1722076;83;27325;-71
2022/09/20 01:33:01;;;;;;;21.80;13.58;;;;;;;8.00;97.80;99802.71;1744640;81;25618;-70
2022/09/20 01:35:30;;;;;;;23.07;13.58;;;;;;;7.99;97.88;99799.23;1719468;81;25753;-71
2022/09/20 01:38:21;;;;;;;22.65;13.78;;;;;;;7.99;97.95;99799.23;1736642;81;25669;-71
2022/09/20 01:41:09;;;;;;;20.43;13.30;;;;;;;8.00;98.09;99798.67;1685631;84;25771;-71
2022/09/20 01:43:59;;;;;;;21.75;13.38;;;;;;;7.98;97.77;99794.14;1690101;84;27921;-71
2022/09/20 01:46:35;;;;;;;20.92;13.78;;;;;;;7.97;97.56;99805.47;1674646;85;25640;-70
2022/09/20 01:49:12;;;;;;;18.35;11.97;;;;;;;7.96;97.28;99811.16;1674655;85;26154;-71
2022/09/20 01:52:06;;;;;;;18.25;12.37;;;;;;;7.94;96.96;99807.98;1674232;85;25883;-70
2022/09/20 01:55:00;;;;;;;22.48;12.68;;;;;;;7.90;96.77;99805.09;1657671;85;25721;-69
2022/09/20 01:58:09;;;;;;;21.02;12.73;;;;;;;7.88;96.83;99805.93;1667870;86;27874;-71
2022/09/20 02:00:59;;;;;;;;;;;;;;;7.84;96.70;99806.30;1677119;85;25797;-72
2022/09/20 02:03:53;;;;;;;18.95;11.25;;;;;;;7.83;96.74;99808.73;1674853;85;25608;-72
2022/09/20 02:06:45;;;;;;;18.77;11.90;;;;;;;7.77;96.74;99808.05;1676438;85;25774;-69
2022/09/20 02:09:32;;;;;;;25.32;14.07;;;;;;;7.74;96.73;99808.65;1676687;84;25325;-71
2022/09/20 02:12:40;;;;;;;24.85;13.10;;;;;;;7.72;97.11;99801.43;1676422;84;27404;-72
2022/09/20 02:15:26;;;;;;;18.52;11.60;;;;;;;7.72;97.49;99810.85;1676563;85;25789;-70
2022/09/20 02:18:10;;;;;;;19.62;12.95;;;;;;;7.72;97.61;99814.10;1691102;84;25738;-71
2022/09/20 02:21:00;;;;;;;18.80;13.05;;;;;;;7.71;97.82;99813.28;1705959;83;25677;-71
2022/09/20 02:24:10;;;;;;;23.67;13.22;;;;;;;7.70;97.94;99814.95;1731846;81;25419;-71
2022/09/20 02:27:19;;;;;;;19.42;12.58;;;;;;;7.70;97.98;99814.40;1756614;81;27359;-70
2022/09/20 02:30:18;;;;;;;21.77;12.13;;;;;;;7.69;97.91;99818.17;1756313;81;25720;-70
2022/09/20 02:32:56;;;;;;;20.00;13.43;;;;;;;7.69;98.02;99820.08;1756055;81;25462;-70
2022/09/20 02:35:37;;;;;;;21.95;12.78;;;;;;;7.69;98.00;99820.08;1720981;81;25628;-69
2022/09/20 02:38:32;;;;;;;21.15;13.43;;;;;;;7.69;98.25;99822.77;1726268;81;25510;-70
2022/09/20 02:41:13;;;;;;;19.85;12.75;;;;;;;7.69;98.69;99819.52;1756770;81;27326;-71
2022/09/20 02:43:56;;;;;;;21.12;12.53;;;;;;;7.72;98.81;99826.22;1752148;81;25882;-71
2022/09/20 02:46:31;;;;;;;19.30;11.70;;;;;;;7.73;98.92;99826.45;1756774;81;25331;-71
2022/09/20 02:49:11;;;;;;;18.65;12.33;;;;;;;7.75;98.89;99830.45;1756632;81;26268;-71
2022/09/20 02:52:01;;;;;;;24.75;14.43;;;;;;;7.77;99.13;99826.89;1756855;81;25540;-69
2022/09/20 02:54:54;;;;;;;19.70;13.03;;;;;;;7.82;99.49;99831.39;1756282;81;27393;-70
2022/09/20 02:57:49;;;;;;;19.42;12.88;;;;;;;7.84;99.64;99837.27;1698728;83;25821;-70
2022/09/20 03:00:31;;;;;;;22.40;12.85;;;;;;;7.88;99.65;99826.13;1699053;83;25462;-70
2022/09/20 03:03:24;;;;;;;18.90;11.78;;;;;;;7.91;99.70;99832.81;1681417;83;25724;-71
2022/09/20 03:06:15;;;;;;;18.82;12.45;;;;;;;7.92;99.63;99833.86;1687144;83;25314;-71
2022/09/20 03:09:28;;;;;;;23.85;12.93;;;;;;;7.95;99.69;99837.30;1648571;87;27519;-71
2022/09/20 03:12:33;;;;;;;17.30;11.28;;;;;;;7.98;99.65;99834.54;1648786;87;25779;-71
2022/09/20 03:15:14;;;;;;;24.37;12.33;;;;;;;8.00;99.59;99837.72;1621537;87;25479;-70
2022/09/20 03:17:45;;;;;;;18.90;11.63;;;;;;;8.01;99.61;99846.06;1649019;86;25643;-70
2022/09/20 03:20:51;;;;;;;20.77;12.82;;;;;;;8.04;99.73;99842.77;1644772;86;25361;-70
2022/09/20 03:24:00;;;;;;;18.25;11.63;;;;;;;8.04;99.66;99846.25;1595912;88;27619;-70
2022/09/20 03:27:17;;;;;;;18.27;11.73;;;;;;;8.07;99.68;99838.12;1595446;89;25728;-70
2022/09/20 03:30:01;;;;;;;16.82;11.10;;;;;;;8.10;99.78;99847.48;1573307;91;25642;-71
2022/09/20 03:33:05;;;;;;;21.68;11.70;;;;;;;8.11;99.70;99844.49;1594577;89;26188;-70
2022/09/20 03:35:43;;;;;;;21.70;12.93;;;;;;;8.13;99.72;99844.19;1646592;87;25659;-70
2022/09/20 03:38:50;;;;;;;21.57;13.45;;;;;;;8.14;99.76;99841.20;1646017;87;27438;-69
2022/09/20 03:41:51;;;;;;;21.17;13.20;;;;;;;8.16;99.77;99848.98;1646946;87;25631;-70
2022/09/20 03:44:42;;;;;;;20.10;13.22;;;;;;;8.16;99.73;99849.77;1647528;87;25623;-71
2022/09/20 03:47:38;;;;;;;22.65;12.85;;;;;;;8.17;99.76;99848.68;1648924;86;26256;-70
2022/09/20 03:50:33;;;;;;;19.70;12.68;;;;;;;8.17;99.87;99853.25;1636343;86;25647;-71
2022/09/20 03:53:34;;;;;;;21.17;13.05;;;;;;;8.18;99.95;99858.34;1641148;82;27349;-70
2022/09/20 03:56:32;;;;;;;24.90;14.03;;;;;;;8.19;100.00;99860.50;1734525;82;25809;-71
2022/09/20 03:59:10;;;;;;;24.15;13.03;;;;;;;8.19;100.00;99855.91;1734527;82;25172;-70
2022/09/20 04:02:31;;;;;;;20.40;12.45;;;;;;;8.21;100.00;99855.05;1734537;82;25658;-71
2022/09/20 04:05:36;;;;;;;23.12;13.95;;;;;;;8.23;100.00;99862.83;1737942;80;25530;-71
2022/09/20 04:08:39;;;;;;;21.73;14.25;;;;;;;8.25;100.00;99866.56;1756430;81;27882;-70
2022/09/20 04:11:27;;;;;;;18.95;12.70;;;;;;;8.29;100.00;99867.55;1733781;82;25686;-71
2022/09/20 04:14:17;;;;;;;21.75;12.53;;;;;;;8.29;100.00;99868.89;1734065;81;25499;-71
2022/09/20 04:17:04;;;;;;;22.65;13.75;;;;;;;8.30;100.00;99871.84;1733964;82;25632;-72
2022/09/20 04:19:45;;;;;;;27.50;14.05;;;;;;;8.32;100.00;99877.16;1683689;84;25719;-72
2022/09/20 04:22:13;;;;;;;20.40;13.20;;;;;;;8.35;100.00;99882.51;1683681;84;27928;-71
2022/09/20 04:25:15;;;;;;;22.87;13.43;;;;;;;8.38;100.00;99886.73;1683552;84;25692;-72
2022/09/20 04:28:01;;;;;;;23.22;13.50;;;;;;;8.40;100.00;99879.70;1667397;85;25632;-72
2022/09/20 04:30:32;;;;;;;25.23;14.55;;;;;;;8.42;100.00;99874.80;1667758;85;25616;-72
2022/09/20 04:33:29;;;;;;;22.75;14.03;;;;;;;8.43;100.00;99868.88;1665908;84;25564;-71
2022/09/20 04:36:30;;;;;;;23.35;13.98;;;;;;;8.44;100.00;99882.05;1667740;85;28117;-70
2022/09/20 04:39:26;;;;;;;20.62;13.53;;;;;;;8.46;100.00;99879.84;1655220;85;25484;-71
2022/09/20 04:42:20;;;;;;;26.68;13.95;;;;;;;8.49;100.00;99886.53;1681007;84;25606;-71
2022/09/20 04:45:18;;;;;;;23.57;13.83;;;;;;;8.49;100.00;99895.41;1682781;84;25726;-70
2022/09/20 04:47:56;;;;;;;23.83;13.58;;;;;;;8.53;100.00;99896.94;1669341;84;25827;-70
2022/09/20 04:51:01;;;;;;;19.62;13.25;;;;;;;8.56;100.00;99899.03;1670699;85;27780;-70
2022/09/20 04:53:47;;;;;;;22.13;13.83;;;;;;;8.58;100.00;99903.56;1644818;87;25516;-71
2022/09/20 04:56:21;;;;;;;22.62;13.72;;;;;;;8.61;100.00;99905.66;1709002;81;25425;-70
2022/09/20 04:58:59;;;;;;;21.27;13.72;;;;;;;8.64;100.00;99901.57;1758356;81;25640;-70
2022/09/20 05:01:53;;;;;;;24.27;14.25;;;;;;;8.66;100.00;99910.93;1741438;81;25438;-72
2022/09/20 05:04:57;;;;;;;20.65;14.45;;;;;;;8.68;100.00;99912.77;1747314;81;27337;-71
2022/09/20 05:07:54;;;;;;;25.40;14.43;;;;;;;8.72;100.00;99923.20;1750314;81;26536;-72
2022/09/20 05:10:47;;;;;;;24.18;15.60;;;;;;;8.76;100.00;99920.69;1756707;81;25639;-71
2022/09/20 05:14:01;;;;;;;24.18;14.58;;;;;;;8.81;100.00;99928.66;1756071;81;27736;-71
2022/09/20 05:16:49;;;;;;;22.52;14.15;;;;;;;8.84;100.00;99926.70;1756100;81;25603;-72
2022/09/20 05:19:57;;;;;;;35.43;16.05;;;;;;;8.88;100.00;99931.72;1752249;81;27342;-72
2022/09/20 05:22:37;;;;;;;23.42;14.75;;;;;;;8.91;100.00;99941.12;1746358;81;25473;-71
2022/09/20 05:25:59;;;;;;;25.32;15.48;;;;;;;8.95;100.00;99951.53;1727050;82;25478;-71
2022/09/20 05:28:49;;;;;;;25.12;14.83;;;;;;;8.98;100.00;99951.71;1727478;82;25739;-71
2022/09/20 05:31:21;;;;;;;24.67;15.72;;;;;;;9.02;100.00;99952.45;1731988;82;25725;-71
2022/09/20 05:34:29;;;;;;;26.93;15.93;;;;;;;9.06;100.00;99950.72;1724152;82;27334;-71
2022/09/20 05:37:15;;;;;;;25.43;15.63;;;;;;;9.07;100.00;99945.58;1707632;82;25627;-70
2022/09/20 05:39:58;;;;;;;21.40;14.83;;;;;;;9.10;100.00;99944.41;1710466;82;25451;-71
2022/09/20 05:42:36;;;;;;;21.10;14.03;;;;;;;9.13;100.00;99951.11;1718437;82;25675;-71
2022/09/20 05:45:17;;;;;;;22.40;14.58;;;;;;;9.15;100.00;99951.03;1710738;83;25673;-70
2022/09/20 05:48:18;;;;;;;23.73;14.95;;;;;;;9.20;100.00;99956.87;1734861;81;27958;-71
2022/09/20 05:50:52;;;;;;;18.57;13.28;;;;;;;9.22;100.00;99961.40;1724594;81;25617;-71
2022/09/20 05:53:51;;;;;;;18.23;12.47;;;;;;;9.23;100.00;99956.79;1738651;82;25586;-71
2022/09/20 05:56:40;;;;;;;19.80;13.88;;;;;;;9.25;100.00;99965.39;1725576;82;25804;-72
2022/09/20 05:59:15;;;;;;;20.75;13.32;;;;;;;9.26;100.00;99959.70;1714635;82;25794;-71
2022/09/20 06:01:47;;;;;;;23.00;14.95;;;;;;;9.26;100.00;99963.74;1743824;81;27309;-71
2022/09/20 06:04:31;;;;;;;20.25;14.38;;;;;;;9.29;100.00;99960.97;1735528;81;25802;-72
2022/09/20 06:07:23;;;;;;;19.20;13.08;;;;;;;9.33;100.00;99970.03;1752184;81;25733;-71
2022/09/20 06:10:19;;;;;;;21.80;13.22;;;;;;;9.37;100.00;99970.23;1752302;81;25636;-72
2022/09/20 06:12:57;;;;;;;19.65;12.37;;;;;;;9.41;100.00;99973.34;1752278;81;25631;-70
2022/09/20 06:15:49;;;;;;;20.60;13.00;;;;;;;9.43;100.00;99967.10;1732175;81;27314;-70
2022/09/20 06:18:27;;;;;;;17.92;12.40;;;;;;;9.47;100.00;99973.47;1722443;81;25429;-72
2022/09/20 06:21:24;;;;;;;18.05;12.13;;;;;;;9.52;100.00;99976.03;1727001;81;25590;-70
2022/09/20 06:23:56;;;;;;;17.52;12.28;;;;;;;9.62;100.00;99978.22;1722299;82;25651;-69
2022/09/20 06:26:27;;;;;;;18.30;13.18;;;;;;;9.70;100.00;99987.73;1726811;81;25736;-69
2022/09/20 06:28:58;;;;;;;16.55;11.68;;;;;;;9.76;100.00;99984.91;1739154;81;27389;-70
2022/09/20 06:31:26;;;;;;;16.45;11.68;;;;;;;9.80;100.00;99988.56;1734338;81;25454;-70
2022/09/20 06:34:00;;;;;;;17.65;11.50;;;;;;;9.85;100.00;99991.91;1733823;81;25408;-71
2022/09/20 06:42:32;;;;;;;20.32;12.85;;;;;;;9.98;100.00;100001.61;1733038;81;27917;-70
2022/09/20 06:44:58;;;;;;;15.20;11.33;;;;;;;10.02;100.00;99997.95;1730063;81;25772;-71
2022/09/20 06:47:26;;;;;;;19.12;12.10;;;;;;;10.03;100.00;100007.66;1731759;81;25691;-69
2022/09/20 06:49:52;;;;;;;16.57;11.63;;;;;;;10.07;100.00;100005.91;1727101;81;25664;-70
2022/09/20 06:52:21;;;;;;;17.98;12.90;;;;;;;10.11;100.00;99999.33;1693928;83;25718;-70
2022/09/20 06:54:53;;;;;;;19.57;12.82;;;;;;;10.20;100.00;100004.76;1733978;81;30179;-70
2022/09/20 06:57:25;;;;;;;16.77;11.40;;;;;;;10.30;100.00;100011.25;1737046;81;25565;-70
2022/09/20 06:59:51;;;;;;;16.55;10.72;;;;;;;10.37;100.00;100017.02;1730409;81;25708;-69
2022/09/20 07:02:17;;;;;;;15.45;10.38;;;;;;;10.43;100.00;100014.40;1729906;81;25613;-69
2022/09/20 07:04:44;;;;;;;19.52;11.90;;;;;;;10.50;100.00;100022.62;1732275;81;25772;-69
2022/09/20 07:07:18;;;;;;;16.15;11.33;;;;;;;10.56;100.00;100020.80;1749568;81;27337;-69
2022/09/20 07:09:45;;;;;;;14.85;11.12;;;;;;;10.63;99.78;100015.72;1749028;81;25637;-70
2022/09/20 07:12:11;;;;;;;15.55;11.30;;;;;;;10.72;100.00;100023.84;1751753;80;25681;-69
2022/09/20 07:14:38;;;;;;;14.47;11.57;;;;;;;10.86;100.00;100025.61;1755932;81;26169;-69
2022/09/20 07:17:05;;;;;;;13.93;11.05;;;;;;;10.95;100.00;100015.61;1754823;81;25752;-70
2022/09/20 07:19:32;;;;;;;21.82;11.75;;;;;;;11.03;100.00;100026.44;1756254;81;28311;-69
2022/09/20 07:21:59;;;;;;;16.00;11.57;;;;;;;11.06;99.55;100030.97;1755076;81;25684;-70
2022/09/20 07:24:25;;;;;;;17.32;11.48;;;;;;;11.12;99.18;100031.05;1753163;81;25665;-72
2022/09/20 07:27:01;;;;;;;14.58;11.15;;;;;;;11.15;99.08;100036.63;1752963;81;25658;-73
2022/09/20 07:29:28;;;;;;;19.75;13.65;;;;;;;11.20;98.87;100032.41;1753222;81;25801;-72
2022/09/20 07:31:56;;;;;;;16.48;11.90;;;;;;;11.26;98.07;100044.42;1750509;81;27318;-73
2022/09/20 07:34:22;;;;;;;22.07;12.40;;;;;;;11.33;99.05;100046.87;1750358;81;25739;-73
2022/09/20 07:36:51;;;;;;;17.80;11.20;;;;;;;11.43;98.50;100050.39;1745563;81;25650;-72
2022/09/20 07:39:18;;;;;;;15.50;10.23;;;;;;;11.49;98.28;100053.97;1755597;81;25628;-73
2022/09/20 07:41:47;;;;;;;16.57;9.38;;;;;;;11.50;97.12;100056.11;1734896;81;25270;-72
2022/09/20 07:44:20;;;;;;;10.60;8.50;;;;;;;11.49;95.99;100058.03;1757585;81;27994;-75
2022/09/20 07:46:54;;;;;;;16.82;9.48;;;;;;;11.50;95.86;100062.31;1756921;81;25680;-75
2022/09/20 07:49:22;;;;;;;17.30;9.70;;;;;;;11.50;95.85;100062.31;1707065;82;25747;-75
2022/09/20 07:51:49;;;;;;;11.50;9.33;;;;;;;11.58;96.60;100056.66;1753749;81;25683;-74
2022/09/20 07:54:16;;;;;;;12.37;9.00;;;;;;;11.69;97.07;100056.55;1753485;81;25632;-75
2022/09/20 07:56:44;;;;;;;13.30;9.38;;;;;;;11.86;97.87;100060.34;1752856;81;27325;-75
2022/09/20 07:59:12;;;;;;;11.60;8.70;;;;;;;11.99;97.31;100062.09;1745542;81;25743;-74
2022/09/20 08:01:40;;;;;;;15.25;9.70;;;;;;;12.07;97.12;100066.69;1729860;82;25564;-73
2022/09/20 08:04:09;;;;;;;12.68;9.45;;;;;;;12.24;97.35;100066.38;1753316;81;25733;-73
2022/09/20 08:06:38;;;;;;;11.38;8.30;;;;;;;12.29;95.80;100067.01;1755671;81;25712;-73
2022/09/20 08:09:06;;;;;;;11.75;8.03;;;;;;;12.40;96.18;100071.50;1752778;81;27310;-77
2022/09/20 08:11:34;;;;;;;10.72;8.70;;;;;;;12.49;95.51;100073.59;1741901;81;26227;-72
2022/09/20 08:14:02;;;;;;;10.90;8.25;;;;;;;12.58;95.09;100072.76;1754908;81;25690;-75
2022/09/20 08:16:30;;;;;;;12.00;8.55;;;;;;;12.67;94.85;100069.45;1736395;81;25619;-73
2022/09/20 08:19:00;;;;;;;10.45;8.03;;;;;;;12.71;94.56;100073.88;1749696;81;26346;-74
2022/09/20 08:21:30;;;;;;;12.73;9.25;;;;;;;12.80;94.79;100071.10;1757805;81;27564;-74
2022/09/20 08:23:58;;;;;;;11.40;8.48;;;;;;;12.90;94.34;100075.36;1751375;81;25697;-73
2022/09/20 08:26:27;;;;;;;9.90;7.75;;;;;;;12.95;93.21;100075.16;1747066;81;25853;-74
2022/09/20 08:28:57;;;;;;;10.88;7.72;;;;;;;13.00;92.88;100078.25;1739427;81;26085;-74
2022/09/20 08:31:29;;;;;;;10.98;7.37;;;;;;;13.08;92.34;100078.76;1741811;81;25668;-73
2022/09/20 08:33:55;;;;;;;10.82;7.95;;;;;;;13.07;91.41;100084.73;1700724;84;27319;-72
2022/09/20 08:36:25;;;;;;;11.18;7.87;;;;;;;13.08;91.47;100084.98;1756888;81;25673;-71
2022/09/20 08:38:52;;;;;;;9.68;7.20;;;;;;;13.09;90.61;100087.13;1748902;80;25765;-70
2022/09/20 08:41:37;;;;;;;9.70;7.90;;;;;;;13.08;90.68;100092.34;1735167;81;25779;-71
2022/09/20 08:44:33;;;;;;;8.43;6.80;;;;;;;13.05;89.85;100086.98;1748981;81;25634;-69
2022/09/20 08:47:25;;;;;;;11.03;7.20;;;;;;;13.05;89.80;100091.63;1723241;82;28311;-71
2022/09/20 08:49:53;;;;;;;9.65;7.70;;;;;;;13.06;90.53;100096.73;1723217;82;25708;-70
2022/09/20 08:52:38;;;;;;;12.95;7.70;;;;;;;13.12;90.36;100093.83;1698796;84;25739;-69
2022/09/20 08:55:16;;;;;;;14.68;9.10;;;;;;;13.11;89.92;100091.68;1726967;83;25801;-69
2022/09/20 08:57:47;;;;;;;13.48;9.30;;;;;;;13.12;89.26;100099.26;1686151;84;25801;-70
2022/09/20 09:00:19;;;;;;;11.57;8.80;;;;;;;13.10;89.32;100099.58;1696836;83;27355;-71
2022/09/20 09:02:48;;;;;;;20.20;10.18;;;;;;;13.06;88.18;100100.81;1769894;80;25626;-69
2022/09/20 09:05:37;;;;;;;18.02;11.38;;;;;;;13.05;88.89;100097.06;1757329;80;25622;-69
2022/09/20 09:08:17;;;;;;;14.80;10.53;;;;;;;13.05;88.39;100099.78;1770737;80;26289;-68
2022/09/20 09:10:51;;;;;;;18.80;11.43;;;;;;;12.98;88.20;100096.80;1722363;83;25767;-70
2022/09/20 09:13:33;;;;;;;14.68;9.23;;;;;;;12.98;88.45;100103.02;1706676;82;28013;-69
2022/09/20 09:16:08;;;;;;;19.32;11.25;;;;;;;12.97;88.16;100099.27;1643045;85;26234;-66
2022/09/20 09:18:39;;;;;;;18.70;11.38;;;;;;;13.03;88.40;100103.39;1646313;85;25504;-69
2022/09/20 09:21:09;;;;;;;15.60;11.12;;;;;;;13.04;88.95;100104.42;1672517;84;25611;-66
2022/09/20 09:23:43;;;;;;;16.57;10.63;;;;;;;13.08;88.29;100109.98;1682457;84;25787;-66
2022/09/20 09:26:20;;;;;;;16.82;11.63;;;;;;;13.02;86.46;100110.72;1680036;84;27432;-66
2022/09/20 09:29:12;;;;;;;16.62;11.50;;;;;;;12.98;87.67;100102.23;1680914;84;26406;-68
2022/09/20 09:31:40;;;;;;;18.75;11.08;;;;;;;13.06;88.47;100110.88;1665668;84;25785;-68
2022/09/20 09:34:30;;;;;;;13.45;10.03;;;;;;;13.16;88.59;100120.00;1657556;84;25841;-69
2022/09/20 09:36:58;;;;;;;15.70;9.65;;;;;;;13.05;87.61;100114.14;1623275;87;25788;-68
2022/09/20 09:39:29;;;;;;;14.60;10.43;;;;;;;13.06;87.26;100114.39;1609271;87;27349;-69
2022/09/20 09:42:01;;;;;;;14.58;9.65;;;;;;;13.05;87.21;100112.78;1640468;85;25921;-69
2022/09/20 09:44:34;;;;;;;15.40;9.40;;;;;;;13.03;87.55;100114.25;1648246;85;25687;-69
2022/09/20 09:47:01;;;;;;;12.98;9.33;;;;;;;13.12;88.33;100117.69;1647899;85;25619;-69
2022/09/20 09:49:34;;;;;;;13.30;9.20;;;;;;;13.21;88.61;100121.70;1654284;85;25767;-69
2022/09/20 09:52:23;;;;;;;13.62;9.48;;;;;;;13.34;88.94;100124.75;1661547;85;27344;-69
2022/09/20 09:54:52;;;;;;;11.93;8.30;;;;;;;13.40;88.13;100128.05;1727380;83;25794;-69
2022/09/20 09:57:41;;;;;;;12.93;7.95;;;;;;;13.36;87.07;100125.21;1727220;83;25661;-69
2022/09/20 10:00:19;;;;;;;9.63;7.60;;;;;;;13.44;88.01;100127.07;1721096;82;25842;-68
2022/09/20 10:03:22;;;;;;;9.03;7.30;;;;;;;13.54;88.36;100129.95;1683892;84;25697;-70
2022/09/20 10:06:19;;;;;;;10.28;7.83;;;;;;;13.66;87.97;100129.22;1703149;84;27501;-68
2022/09/20 10:09:06;;;;;;;9.48;7.80;;;;;;;13.74;87.01;100135.69;1699668;84;25743;-70
2022/09/20 10:11:51;;;;;;;10.32;7.90;;;;;;;13.76;87.09;100133.45;1717238;83;25906;-69
2022/09/20 10:15:10;;;;;;;11.03;8.40;;;;;;;13.78;86.55;100140.12;1716890;82;25751;-69
2022/09/20 10:18:20;;;;;;;10.05;8.45;;;;;;;13.78;86.30;100146.14;1753955;81;25644;-69
2022/09/20 10:21:20;;;;;;;;;;;;;;;13.77;85.94;100144.53;1758567;81;27404;-68
2022/09/20 10:24:16;;;;;;;11.93;9.15;;;;;;;13.70;85.12;100145.08;1742179;81;25773;-69
2022/09/20 10:27:15;;;;;;;12.30;9.98;;;;;;;13.56;84.45;100145.36;1756526;81;25741;-69
2022/09/20 10:30:05;;;;;;;13.70;9.45;;;;;;;13.52;84.84;100143.62;1756256;81;32565;-69
2022/09/20 10:32:49;;;;;;;15.13;9.38;;;;;;;13.50;85.61;100141.27;1734002;81;25687;-68
2022/09/20 10:35:33;;;;;;;17.48;9.88;;;;;;;13.58;86.11;100141.73;1693558;83;27348;-72
2022/09/20 10:38:28;;;;;;;14.85;10.00;;;;;;;13.62;86.07;100142.67;1756276;81;26024;-71
2022/09/20 10:44:30;;;;;;;17.10;10.82;;;;;;;13.91;87.05;100132.01;1729824;81;44897;-70
2022/09/20 10:47:05;;;;;;;15.15;10.65;;;;;;;14.13;87.63;100138.44;1733445;82;25740;-68
2022/09/20 10:50:06;;;;;;;19.75;10.45;;;;;;;14.30;86.62;100139.36;1728139;82;27417;-69
2022/09/20 10:52:41;;;;;;;14.00;9.65;;;;;;;14.36;85.95;100136.08;1726891;82;25944;-68
2022/09/20 10:55:25;;;;;;;11.93;8.68;;;;;;;14.56;86.29;100138.49;1726404;82;25835;-69
2022/09/20 10:58:29;;;;;;;13.78;8.70;;;;;;;14.78;86.00;100137.86;1728090;81;25794;-70
2022/09/20 11:01:39;;;;;;;11.48;7.53;;;;;;;14.98;85.08;100132.61;1703056;82;26410;-69
2022/09/20 11:04:20;;;;;;;10.35;6.80;;;;;;;15.26;86.37;100138.13;1698661;82;27409;-68
2022/09/20 11:07:15;;;;;;;8.33;6.65;;;;;;;15.60;85.06;100129.17;1736893;82;25771;-69
2022/09/20 11:09:52;;;;;;;11.97;6.75;;;;;;;15.71;83.00;100134.91;1729387;82;25820;-68
2022/09/20 11:12:31;;;;;;;9.30;6.05;;;;;;;15.78;82.33;100129.13;1729603;82;25702;-65
2022/09/20 11:15:06;;;;;;;9.50;6.65;;;;;;;15.78;81.52;100130.50;1697873;83;25635;-65
2022/09/20 11:17:38;;;;;;;6.80;5.90;;;;;;;15.77;80.19;100137.66;1706927;82;27741;-67
2022/09/20 11:20:19;;;;;;;8.55;6.05;;;;;;;15.62;79.08;100131.77;1723792;82;25871;-69
2022/09/20 11:23:11;;;;;;;12.47;6.62;;;;;;;15.53;78.81;100138.49;1722252;83;25689;-66
2022/09/20 11:25:54;;;;;;;11.65;6.65;;;;;;;15.47;79.22;100127.83;1701058;84;25912;-68
2022/09/20 11:28:35;;;;;;;9.40;6.45;;;;;;;15.55;79.77;100129.42;1717871;83;25799;-65
2022/09/20 11:31:19;;;;;;;8.85;6.30;;;;;;;15.59;79.11;100129.72;1717225;83;27424;-66
2022/09/20 11:33:57;;;;;;;8.75;6.60;;;;;;;15.60;78.48;100138.14;1722838;83;25744;-67
2022/09/20 11:36:38;;;;;;;8.88;6.05;;;;;;;15.59;77.74;100138.48;1723408;83;25723;-67
2022/09/20 11:39:18;;;;;;;9.18;6.83;;;;;;;15.58;78.21;100137.70;1721325;83;27880;-67
2022/09/20 11:41:46;;;;;;;6.97;5.70;;;;;;;15.59;78.24;100137.91;1708775;82;26321;-67
2022/09/20 11:44:16;;;;;;;7.67;6.62;;;;;;;15.64;78.32;100130.05;1707902;83;27481;-68
2022/09/20 11:46:58;;;;;;;10.32;6.58;;;;;;;15.83;79.31;100132.97;1704462;82;52271;-67
2022/09/20 11:49:47;;;;;;;13.30;7.50;;;;;;;16.05;78.71;100126.70;1755870;81;25686;-67
2022/09/20 11:52:56;;;;;;;11.03;6.37;;;;;;;16.30;79.08;100130.66;1755897;81;25729;-67
2022/09/20 11:55:31;;;;;;;9.45;6.55;;;;;;;16.67;79.09;100131.18;1755630;81;25704;-67
2022/09/20 11:58:21;;;;;;;7.47;5.60;;;;;;;17.20;78.15;100128.66;1755500;81;27956;-67
2022/09/20 12:00:49;;;;;;;8.33;5.55;;;;;;;17.74;76.77;100129.98;1755064;81;25412;-67
2022/09/20 12:03:37;;;;;;;7.80;5.22;;;;;;;18.11;75.91;100128.72;1755673;81;25567;-67
2022/09/20 12:06:08;;;;;;;5.55;4.90;;;;;;;18.45;74.58;100128.31;1747459;81;26022;-66
2022/09/20 12:08:38;;;;;;;8.18;4.97;;;;;;;18.54;71.09;100130.02;1735242;81;25739;-67
2022/09/20 12:11:11;;;;;;;5.42;4.75;;;;;;;18.67;72.13;100136.30;1689937;84;27292;-67
2022/09/20 12:13:41;;;;;;;9.63;5.67;;;;;;;19.11;73.25;100132.27;1722366;83;25702;-67
2022/09/20 12:16:15;;;;;;;4.80;4.30;;;;;;;19.54;70.83;100127.33;1726795;82;25621;-67
2022/09/20 12:18:59;;;;;;;5.50;4.87;;;;;;;19.37;68.01;100125.95;1710951;83;25809;-67
2022/09/20 12:21:27;;;;;;;8.10;4.30;;;;;;;19.19;67.42;100122.98;1706991;82;25703;-67
2022/09/20 12:24:01;;;;;;;4.72;3.80;;;;;;;18.99;66.66;100122.32;1721018;83;27325;-68
2022/09/20 12:26:38;;;;;;;5.70;4.12;;;;;;;18.74;66.29;100123.30;1722583;83;25632;-67
2022/09/20 12:29:32;;;;;;;4.55;4.00;;;;;;;18.52;65.46;100124.13;1714470;83;25714;-67
2022/09/20 12:32:06;;;;;;;5.35;4.85;;;;;;;18.25;65.79;100123.51;1710843;82;25658;-69
2022/09/20 12:34:35;;;;;;;21.50;5.05;;;;;;;18.07;66.11;100123.77;1724105;82;25579;-68
2022/09/20 12:37:09;;;;;;;6.45;4.37;;;;;;;17.95;66.50;100126.09;1690369;84;28122;-67